sensor_id;sensor_type;location;lat;lon;timestamp;P1;durP1;ratioP1;P2;durP2;ratioP2
70800;SDS011;59616;52.170;5.386;2023-04-24T00:02:04;3.45;;;1.13;;
70800;SDS011;59616;52.170;5.386;2023-04-24T00:04:33;3.30;;;1.10;;
70800;SDS011;59616;52.170;5.386;2023-04-24T00:07:00;2.00;;;1.13;;
70800;SDS011;59616;52.170;5.386;2023-04-24T00:09:28;3.08;;;1.50;;
70800;SDS011;59616;52.170;5.386;2023-04-24T00:11:55;3.03;;;1.20;;
70800;SDS011;59616;52.170;5.386;2023-04-24T00:14:23;4.13;;;1.05;;
70800;SDS011;59616;52.170;5.386;2023-04-24T00:16:51;1.98;;;0.95;;
70800;SDS011;59616;52.170;5.386;2023-04-24T00:19:18;2.80;;;1.02;;
70800;SDS011;59616;52.170;5.386;2023-04-24T00:21:47;3.10;;;0.80;;
70800;SDS011;59616;52.170;5.386;2023-04-24T00:24:18;2.25;;;1.00;;
70800;SDS011;59616;52.170;5.386;2023-04-24T00:26:45;2.70;;;1.02;;
70800;SDS011;59616;52.170;5.386;2023-04-24T00:29:13;2.45;;;1.10;;
70800;SDS011;59616;52.170;5.386;2023-04-24T00:31:40;3.15;;;1.20;;
70800;SDS011;59616;52.170;5.386;2023-04-24T00:34:07;3.13;;;1.30;;
70800;SDS011;59616;52.170;5.386;2023-04-24T00:36:35;3.95;;;1.52;;
70800;SDS011;59616;52.170;5.386;2023-04-24T00:39:02;4.35;;;1.65;;
70800;SDS011;59616;52.170;5.386;2023-04-24T00:41:29;4.47;;;1.60;;
70800;SDS011;59616;52.170;5.386;2023-04-24T00:43:57;2.97;;;1.33;;
70800;SDS011;59616;52.170;5.386;2023-04-24T00:46:24;3.63;;;1.27;;
70800;SDS011;59616;52.170;5.386;2023-04-24T00:48:51;3.08;;;1.40;;
70800;SDS011;59616;52.170;5.386;2023-04-24T00:51:18;4.70;;;1.70;;
70800;SDS011;59616;52.170;5.386;2023-04-24T00:53:47;4.97;;;1.58;;
70800;SDS011;59616;52.170;5.386;2023-04-24T00:56:14;3.65;;;1.30;;
70800;SDS011;59616;52.170;5.386;2023-04-24T00:58:42;4.28;;;1.60;;
70800;SDS011;59616;52.170;5.386;2023-04-24T01:01:09;4.00;;;1.33;;
70800;SDS011;59616;52.170;5.386;2023-04-24T01:03:38;3.75;;;1.55;;
70800;SDS011;59616;52.170;5.386;2023-04-24T01:06:05;4.18;;;1.65;;
70800;SDS011;59616;52.170;5.386;2023-04-24T01:08:33;4.47;;;1.90;;
70800;SDS011;59616;52.170;5.386;2023-04-24T01:11:03;5.97;;;2.28;;
70800;SDS011;59616;52.170;5.386;2023-04-24T01:13:31;8.52;;;1.92;;
70800;SDS011;59616;52.170;5.386;2023-04-24T01:15:58;6.28;;;2.08;;
70800;SDS011;59616;52.170;5.386;2023-04-24T01:18:27;5.60;;;2.20;;
70800;SDS011;59616;52.170;5.386;2023-04-24T01:20:57;5.50;;;2.13;;
70800;SDS011;59616;52.170;5.386;2023-04-24T01:23:25;6.68;;;2.70;;
70800;SDS011;59616;52.170;5.386;2023-04-24T01:25:53;6.63;;;2.28;;
70800;SDS011;59616;52.170;5.386;2023-04-24T01:28:20;10.07;;;2.65;;
70800;SDS011;59616;52.170;5.386;2023-04-24T01:30:47;6.63;;;2.50;;
70800;SDS011;59616;52.170;5.386;2023-04-24T01:33:15;7.30;;;2.85;;
70800;SDS011;59616;52.170;5.386;2023-04-24T01:35:43;7.88;;;3.03;;
70800;SDS011;59616;52.170;5.386;2023-04-24T01:38:10;8.35;;;2.90;;
70800;SDS011;59616;52.170;5.386;2023-04-24T01:40:37;7.60;;;2.72;;
70800;SDS011;59616;52.170;5.386;2023-04-24T01:43:05;9.48;;;3.35;;
70800;SDS011;59616;52.170;5.386;2023-04-24T01:45:32;7.90;;;3.00;;
70800;SDS011;59616;52.170;5.386;2023-04-24T01:48:03;8.30;;;3.10;;
70800;SDS011;59616;52.170;5.386;2023-04-24T01:50:30;6.85;;;2.72;;
70800;SDS011;59616;52.170;5.386;2023-04-24T01:52:57;9.57;;;3.03;;
70800;SDS011;59616;52.170;5.386;2023-04-24T01:55:25;9.05;;;3.20;;
70800;SDS011;59616;52.170;5.386;2023-04-24T01:57:52;8.48;;;3.17;;
70800;SDS011;59616;52.170;5.386;2023-04-24T02:00:21;10.43;;;3.30;;
70800;SDS011;59616;52.170;5.386;2023-04-24T02:02:50;7.15;;;2.65;;
70800;SDS011;59616;52.170;5.386;2023-04-24T02:05:18;8.38;;;3.13;;
70800;SDS011;59616;52.170;5.386;2023-04-24T02:07:45;8.07;;;3.10;;
70800;SDS011;59616;52.170;5.386;2023-04-24T02:10:13;7.95;;;3.20;;
70800;SDS011;59616;52.170;5.386;2023-04-24T02:12:41;8.63;;;3.30;;
70800;SDS011;59616;52.170;5.386;2023-04-24T02:15:09;7.95;;;2.95;;
70800;SDS011;59616;52.170;5.386;2023-04-24T02:17:36;8.68;;;3.28;;
70800;SDS011;59616;52.170;5.386;2023-04-24T02:20:04;8.20;;;3.28;;
70800;SDS011;59616;52.170;5.386;2023-04-24T02:22:32;9.88;;;3.42;;
70800;SDS011;59616;52.170;5.386;2023-04-24T02:25:00;11.20;;;3.42;;
70800;SDS011;59616;52.170;5.386;2023-04-24T02:27:28;8.75;;;3.30;;
70800;SDS011;59616;52.170;5.386;2023-04-24T02:29:55;9.27;;;3.50;;
70800;SDS011;59616;52.170;5.386;2023-04-24T02:32:23;8.27;;;3.33;;
70800;SDS011;59616;52.170;5.386;2023-04-24T02:34:50;8.32;;;3.20;;
70800;SDS011;59616;52.170;5.386;2023-04-24T02:37:18;8.15;;;2.97;;
70800;SDS011;59616;52.170;5.386;2023-04-24T02:39:45;9.00;;;2.90;;
70800;SDS011;59616;52.170;5.386;2023-04-24T02:42:12;7.18;;;2.63;;
70800;SDS011;59616;52.170;5.386;2023-04-24T02:44:39;10.68;;;2.80;;
70800;SDS011;59616;52.170;5.386;2023-04-24T02:47:07;7.82;;;2.72;;
70800;SDS011;59616;52.170;5.386;2023-04-24T02:49:35;6.60;;;2.50;;
70800;SDS011;59616;52.170;5.386;2023-04-24T02:52:02;8.07;;;2.67;;
70800;SDS011;59616;52.170;5.386;2023-04-24T02:54:29;7.40;;;2.78;;
70800;SDS011;59616;52.170;5.386;2023-04-24T02:56:56;7.97;;;2.70;;
70800;SDS011;59616;52.170;5.386;2023-04-24T02:59:24;7.80;;;2.55;;
70800;SDS011;59616;52.170;5.386;2023-04-24T03:01:53;6.95;;;2.50;;
70800;SDS011;59616;52.170;5.386;2023-04-24T03:04:20;7.35;;;2.80;;
70800;SDS011;59616;52.170;5.386;2023-04-24T03:06:49;6.25;;;2.22;;
70800;SDS011;59616;52.170;5.386;2023-04-24T03:09:19;7.30;;;2.30;;
70800;SDS011;59616;52.170;5.386;2023-04-24T03:11:46;6.68;;;2.40;;
70800;SDS011;59616;52.170;5.386;2023-04-24T03:14:15;6.50;;;2.10;;
70800;SDS011;59616;52.170;5.386;2023-04-24T03:16:42;7.45;;;2.65;;
70800;SDS011;59616;52.170;5.386;2023-04-24T03:19:09;8.20;;;2.45;;
70800;SDS011;59616;52.170;5.386;2023-04-24T03:21:45;8.23;;;2.63;;
70800;SDS011;59616;52.170;5.386;2023-04-24T03:24:13;8.75;;;3.00;;
70800;SDS011;59616;52.170;5.386;2023-04-24T03:26:40;7.30;;;2.38;;
70800;SDS011;59616;52.170;5.386;2023-04-24T03:29:32;7.72;;;2.17;;
70800;SDS011;59616;52.170;5.386;2023-04-24T03:31:59;7.25;;;2.03;;
70800;SDS011;59616;52.170;5.386;2023-04-24T03:34:27;6.03;;;1.80;;
70800;SDS011;59616;52.170;5.386;2023-04-24T03:36:56;5.13;;;1.80;;
70800;SDS011;59616;52.170;5.386;2023-04-24T03:39:23;5.03;;;1.83;;
70800;SDS011;59616;52.170;5.386;2023-04-24T03:41:54;4.00;;;1.48;;
70800;SDS011;59616;52.170;5.386;2023-04-24T03:44:27;4.65;;;1.48;;
70800;SDS011;59616;52.170;5.386;2023-04-24T03:46:54;4.25;;;1.50;;
70800;SDS011;59616;52.170;5.386;2023-04-24T03:49:23;4.70;;;1.40;;
70800;SDS011;59616;52.170;5.386;2023-04-24T03:51:51;5.50;;;1.70;;
70800;SDS011;59616;52.170;5.386;2023-04-24T03:54:24;4.50;;;1.70;;
70800;SDS011;59616;52.170;5.386;2023-04-24T03:56:53;5.32;;;1.60;;
70800;SDS011;59616;52.170;5.386;2023-04-24T03:59:21;7.13;;;2.03;;
70800;SDS011;59616;52.170;5.386;2023-04-24T04:02:01;6.70;;;1.60;;
70800;SDS011;59616;52.170;5.386;2023-04-24T04:04:28;6.72;;;2.05;;
70800;SDS011;59616;52.170;5.386;2023-04-24T04:06:56;7.07;;;2.00;;
70800;SDS011;59616;52.170;5.386;2023-04-24T04:09:27;6.03;;;1.98;;
70800;SDS011;59616;52.170;5.386;2023-04-24T04:11:54;5.85;;;1.70;;
70800;SDS011;59616;52.170;5.386;2023-04-24T04:14:22;5.68;;;1.60;;
70800;SDS011;59616;52.170;5.386;2023-04-24T04:16:49;4.13;;;1.17;;
70800;SDS011;59616;52.170;5.386;2023-04-24T04:19:20;4.75;;;1.35;;
70800;SDS011;59616;52.170;5.386;2023-04-24T04:21:47;5.32;;;1.40;;
70800;SDS011;59616;52.170;5.386;2023-04-24T04:24:26;3.53;;;1.20;;
70800;SDS011;59616;52.170;5.386;2023-04-24T04:26:57;3.45;;;1.42;;
70800;SDS011;59616;52.170;5.386;2023-04-24T04:29:28;3.70;;;1.13;;
70800;SDS011;59616;52.170;5.386;2023-04-24T04:31:58;5.80;;;1.60;;
70800;SDS011;59616;52.170;5.386;2023-04-24T04:34:26;4.65;;;1.60;;
70800;SDS011;59616;52.170;5.386;2023-04-24T04:36:53;4.85;;;1.45;;
70800;SDS011;59616;52.170;5.386;2023-04-24T04:39:40;5.10;;;1.67;;
70800;SDS011;59616;52.170;5.386;2023-04-24T04:42:20;4.97;;;1.55;;
70800;SDS011;59616;52.170;5.386;2023-04-24T04:44:48;5.28;;;1.70;;
70800;SDS011;59616;52.170;5.386;2023-04-24T04:47:21;5.78;;;1.50;;
70800;SDS011;59616;52.170;5.386;2023-04-24T04:49:50;5.90;;;1.73;;
70800;SDS011;59616;52.170;5.386;2023-04-24T04:52:21;5.93;;;1.90;;
70800;SDS011;59616;52.170;5.386;2023-04-24T04:54:56;5.47;;;1.90;;
70800;SDS011;59616;52.170;5.386;2023-04-24T04:57:31;4.78;;;1.65;;
70800;SDS011;59616;52.170;5.386;2023-04-24T04:59:59;6.03;;;1.80;;
70800;SDS011;59616;52.170;5.386;2023-04-24T05:02:39;7.28;;;2.05;;
70800;SDS011;59616;52.170;5.386;2023-04-24T05:05:07;6.72;;;1.90;;
70800;SDS011;59616;52.170;5.386;2023-04-24T05:07:35;8.35;;;2.80;;
70800;SDS011;59616;52.170;5.386;2023-04-24T05:10:03;8.98;;;2.38;;
70800;SDS011;59616;52.170;5.386;2023-04-24T05:12:30;9.23;;;2.50;;
70800;SDS011;59616;52.170;5.386;2023-04-24T05:14:59;9.05;;;2.65;;
70800;SDS011;59616;52.170;5.386;2023-04-24T05:17:27;8.27;;;2.63;;
70800;SDS011;59616;52.170;5.386;2023-04-24T05:19:55;8.27;;;2.65;;
70800;SDS011;59616;52.170;5.386;2023-04-24T05:22:23;8.32;;;2.92;;
70800;SDS011;59616;52.170;5.386;2023-04-24T05:24:51;8.57;;;2.55;;
70800;SDS011;59616;52.170;5.386;2023-04-24T05:27:35;10.00;;;2.92;;
70800;SDS011;59616;52.170;5.386;2023-04-24T05:30:08;10.50;;;2.90;;
70800;SDS011;59616;52.170;5.386;2023-04-24T05:32:35;8.95;;;2.97;;
70800;SDS011;59616;52.170;5.386;2023-04-24T05:35:03;9.07;;;2.88;;
70800;SDS011;59616;52.170;5.386;2023-04-24T05:37:30;10.32;;;2.72;;
70800;SDS011;59616;52.170;5.386;2023-04-24T05:39:58;7.85;;;2.58;;
70800;SDS011;59616;52.170;5.386;2023-04-24T05:42:25;8.63;;;2.97;;
70800;SDS011;59616;52.170;5.386;2023-04-24T05:44:52;9.18;;;2.58;;
70800;SDS011;59616;52.170;5.386;2023-04-24T05:47:23;8.95;;;2.78;;
70800;SDS011;59616;52.170;5.386;2023-04-24T05:49:51;8.23;;;2.80;;
70800;SDS011;59616;52.170;5.386;2023-04-24T05:52:19;8.25;;;2.25;;
70800;SDS011;59616;52.170;5.386;2023-04-24T05:54:47;7.18;;;2.20;;
70800;SDS011;59616;52.170;5.386;2023-04-24T05:57:20;6.50;;;1.70;;
70800;SDS011;59616;52.170;5.386;2023-04-24T05:59:51;4.25;;;1.38;;
70800;SDS011;59616;52.170;5.386;2023-04-24T06:02:20;9.75;;;1.52;;
70800;SDS011;59616;52.170;5.386;2023-04-24T06:04:48;5.03;;;1.42;;
70800;SDS011;59616;52.170;5.386;2023-04-24T06:07:16;5.03;;;1.25;;
70800;SDS011;59616;52.170;5.386;2023-04-24T06:09:44;5.70;;;1.42;;
70800;SDS011;59616;52.170;5.386;2023-04-24T06:12:11;5.50;;;1.30;;
70800;SDS011;59616;52.170;5.386;2023-04-24T06:14:58;3.92;;;1.13;;
70800;SDS011;59616;52.170;5.386;2023-04-24T06:17:45;2.95;;;1.00;;
70800;SDS011;59616;52.170;5.386;2023-04-24T06:20:14;3.40;;;1.02;;
70800;SDS011;59616;52.170;5.386;2023-04-24T06:22:42;5.65;;;1.02;;
70800;SDS011;59616;52.170;5.386;2023-04-24T06:25:09;4.85;;;1.20;;
70800;SDS011;59616;52.170;5.386;2023-04-24T06:27:37;3.13;;;0.80;;
70800;SDS011;59616;52.170;5.386;2023-04-24T06:30:04;3.58;;;0.90;;
70800;SDS011;59616;52.170;5.386;2023-04-24T06:32:32;5.60;;;0.90;;
70800;SDS011;59616;52.170;5.386;2023-04-24T06:34:59;3.55;;;1.27;;
70800;SDS011;59616;52.170;5.386;2023-04-24T06:37:27;5.03;;;1.50;;
70800;SDS011;59616;52.170;5.386;2023-04-24T06:39:54;7.63;;;2.40;;
70800;SDS011;59616;52.170;5.386;2023-04-24T06:42:21;10.82;;;2.53;;
70800;SDS011;59616;52.170;5.386;2023-04-24T06:44:51;11.13;;;3.45;;
70800;SDS011;59616;52.170;5.386;2023-04-24T06:47:18;11.35;;;4.07;;
70800;SDS011;59616;52.170;5.386;2023-04-24T06:49:45;17.38;;;5.53;;
70800;SDS011;59616;52.170;5.386;2023-04-24T06:52:12;17.25;;;5.68;;
70800;SDS011;59616;52.170;5.386;2023-04-24T06:54:41;14.68;;;4.65;;
70800;SDS011;59616;52.170;5.386;2023-04-24T06:57:09;14.82;;;5.82;;
70800;SDS011;59616;52.170;5.386;2023-04-24T06:59:42;13.88;;;4.70;;
70800;SDS011;59616;52.170;5.386;2023-04-24T07:02:10;13.60;;;5.10;;
70800;SDS011;59616;52.170;5.386;2023-04-24T07:04:37;18.50;;;6.03;;
70800;SDS011;59616;52.170;5.386;2023-04-24T07:07:05;17.40;;;5.80;;
70800;SDS011;59616;52.170;5.386;2023-04-24T07:09:33;15.82;;;5.50;;
70800;SDS011;59616;52.170;5.386;2023-04-24T07:12:04;16.30;;;6.15;;
70800;SDS011;59616;52.170;5.386;2023-04-24T07:14:32;14.65;;;5.93;;
70800;SDS011;59616;52.170;5.386;2023-04-24T07:16:59;15.20;;;5.68;;
70800;SDS011;59616;52.170;5.386;2023-04-24T07:19:27;16.40;;;5.05;;
70800;SDS011;59616;52.170;5.386;2023-04-24T07:21:54;18.85;;;6.18;;
70800;SDS011;59616;52.170;5.386;2023-04-24T07:24:22;18.85;;;5.22;;
70800;SDS011;59616;52.170;5.386;2023-04-24T07:26:52;17.05;;;6.25;;
70800;SDS011;59616;52.170;5.386;2023-04-24T07:29:19;12.52;;;4.93;;
70800;SDS011;59616;52.170;5.386;2023-04-24T07:31:47;14.02;;;5.22;;
70800;SDS011;59616;52.170;5.386;2023-04-24T07:34:14;21.10;;;5.88;;
70800;SDS011;59616;52.170;5.386;2023-04-24T07:36:41;17.33;;;4.68;;
70800;SDS011;59616;52.170;5.386;2023-04-24T07:39:09;11.93;;;4.93;;
70800;SDS011;59616;52.170;5.386;2023-04-24T07:41:36;17.23;;;5.40;;
70800;SDS011;59616;52.170;5.386;2023-04-24T07:44:03;15.25;;;5.25;;
70800;SDS011;59616;52.170;5.386;2023-04-24T07:46:31;14.73;;;5.15;;
70800;SDS011;59616;52.170;5.386;2023-04-24T07:48:58;16.80;;;5.10;;
70800;SDS011;59616;52.170;5.386;2023-04-24T07:51:39;14.90;;;5.13;;
70800;SDS011;59616;52.170;5.386;2023-04-24T07:54:08;15.20;;;5.38;;
70800;SDS011;59616;52.170;5.386;2023-04-24T07:56:35;13.90;;;5.30;;
70800;SDS011;59616;52.170;5.386;2023-04-24T07:59:05;12.55;;;4.70;;
70800;SDS011;59616;52.170;5.386;2023-04-24T08:01:33;12.95;;;5.20;;
70800;SDS011;59616;52.170;5.386;2023-04-24T08:04:00;19.08;;;5.32;;
70800;SDS011;59616;52.170;5.386;2023-04-24T08:06:28;14.90;;;5.82;;
70800;SDS011;59616;52.170;5.386;2023-04-24T08:08:57;16.08;;;4.60;;
70800;SDS011;59616;52.170;5.386;2023-04-24T08:11:24;17.52;;;4.68;;
70800;SDS011;59616;52.170;5.386;2023-04-24T08:13:52;14.70;;;3.80;;
70800;SDS011;59616;52.170;5.386;2023-04-24T08:16:21;12.85;;;3.97;;
70800;SDS011;59616;52.170;5.386;2023-04-24T08:18:50;14.32;;;3.65;;
70800;SDS011;59616;52.170;5.386;2023-04-24T08:21:17;12.75;;;3.47;;
70800;SDS011;59616;52.170;5.386;2023-04-24T08:23:45;10.80;;;3.15;;
70800;SDS011;59616;52.170;5.386;2023-04-24T08:26:12;10.88;;;3.10;;
70800;SDS011;59616;52.170;5.386;2023-04-24T08:28:39;11.82;;;3.08;;
70800;SDS011;59616;52.170;5.386;2023-04-24T08:31:07;12.68;;;3.20;;
70800;SDS011;59616;52.170;5.386;2023-04-24T08:33:34;15.05;;;3.17;;
70800;SDS011;59616;52.170;5.386;2023-04-24T08:36:02;9.38;;;3.00;;
70800;SDS011;59616;52.170;5.386;2023-04-24T08:38:29;13.68;;;3.58;;
70800;SDS011;59616;52.170;5.386;2023-04-24T08:41:00;15.70;;;3.28;;
70800;SDS011;59616;52.170;5.386;2023-04-24T08:43:28;11.07;;;3.13;;
70800;SDS011;59616;52.170;5.386;2023-04-24T08:45:55;14.60;;;2.90;;
70800;SDS011;59616;52.170;5.386;2023-04-24T08:48:23;12.57;;;2.42;;
70800;SDS011;59616;52.170;5.386;2023-04-24T08:50:57;9.95;;;2.00;;
70800;SDS011;59616;52.170;5.386;2023-04-24T08:53:24;9.43;;;2.33;;
70800;SDS011;59616;52.170;5.386;2023-04-24T08:55:52;8.57;;;2.60;;
70800;SDS011;59616;52.170;5.386;2023-04-24T08:58:21;8.75;;;2.00;;
70800;SDS011;59616;52.170;5.386;2023-04-24T09:00:49;12.65;;;1.85;;
70800;SDS011;59616;52.170;5.386;2023-04-24T09:03:17;5.68;;;1.55;;
70800;SDS011;59616;52.170;5.386;2023-04-24T09:05:46;6.47;;;1.70;;
70800;SDS011;59616;52.170;5.386;2023-04-24T09:08:13;10.82;;;2.13;;
70800;SDS011;59616;52.170;5.386;2023-04-24T09:10:41;7.28;;;1.75;;
70800;SDS011;59616;52.170;5.386;2023-04-24T09:13:08;11.45;;;1.90;;
70800;SDS011;59616;52.170;5.386;2023-04-24T09:15:36;12.32;;;1.98;;
70800;SDS011;59616;52.170;5.386;2023-04-24T09:18:04;15.88;;;2.28;;
70800;SDS011;59616;52.170;5.386;2023-04-24T09:20:32;12.50;;;2.35;;
70800;SDS011;59616;52.170;5.386;2023-04-24T09:22:59;6.78;;;1.70;;
70800;SDS011;59616;52.170;5.386;2023-04-24T09:25:33;8.00;;;1.85;;
70800;SDS011;59616;52.170;5.386;2023-04-24T09:28:02;11.52;;;2.30;;
70800;SDS011;59616;52.170;5.386;2023-04-24T09:30:30;8.20;;;1.85;;
70800;SDS011;59616;52.170;5.386;2023-04-24T09:33:13;8.40;;;2.10;;
70800;SDS011;59616;52.170;5.386;2023-04-24T09:35:41;7.25;;;1.95;;
70800;SDS011;59616;52.170;5.386;2023-04-24T09:38:11;11.02;;;2.25;;
70800;SDS011;59616;52.170;5.386;2023-04-24T09:40:39;8.35;;;1.88;;
70800;SDS011;59616;52.170;5.386;2023-04-24T09:43:09;9.15;;;1.70;;
70800;SDS011;59616;52.170;5.386;2023-04-24T09:45:38;11.80;;;2.05;;
70800;SDS011;59616;52.170;5.386;2023-04-24T09:48:09;9.48;;;1.83;;
70800;SDS011;59616;52.170;5.386;2023-04-24T09:50:36;4.88;;;1.55;;
70800;SDS011;59616;52.170;5.386;2023-04-24T09:53:04;8.65;;;1.60;;
70800;SDS011;59616;52.170;5.386;2023-04-24T09:55:38;8.60;;;2.45;;
70800;SDS011;59616;52.170;5.386;2023-04-24T09:58:07;7.97;;;1.73;;
70800;SDS011;59616;52.170;5.386;2023-04-24T10:00:35;9.95;;;1.73;;
70800;SDS011;59616;52.170;5.386;2023-04-24T10:03:03;9.52;;;2.05;;
70800;SDS011;59616;52.170;5.386;2023-04-24T10:05:33;10.35;;;2.10;;
70800;SDS011;59616;52.170;5.386;2023-04-24T10:08:07;6.72;;;1.85;;
70800;SDS011;59616;52.170;5.386;2023-04-24T10:10:41;7.38;;;1.75;;
70800;SDS011;59616;52.170;5.386;2023-04-24T10:13:09;8.18;;;1.73;;
70800;SDS011;59616;52.170;5.386;2023-04-24T10:15:37;9.88;;;1.90;;
70800;SDS011;59616;52.170;5.386;2023-04-24T10:18:05;7.53;;;1.80;;
70800;SDS011;59616;52.170;5.386;2023-04-24T10:20:36;10.85;;;2.20;;
70800;SDS011;59616;52.170;5.386;2023-04-24T10:23:04;10.38;;;1.70;;
70800;SDS011;59616;52.170;5.386;2023-04-24T10:25:32;10.25;;;1.60;;
70800;SDS011;59616;52.170;5.386;2023-04-24T10:28:00;4.13;;;1.10;;
70800;SDS011;59616;52.170;5.386;2023-04-24T10:30:29;6.28;;;1.52;;
70800;SDS011;59616;52.170;5.386;2023-04-24T10:32:56;6.85;;;1.45;;
70800;SDS011;59616;52.170;5.386;2023-04-24T10:35:24;3.97;;;1.38;;
70800;SDS011;59616;52.170;5.386;2023-04-24T10:40:26;5.07;;;1.00;;
70800;SDS011;59616;52.170;5.386;2023-04-24T10:42:54;4.07;;;1.00;;
70800;SDS011;59616;52.170;5.386;2023-04-24T10:45:24;3.35;;;0.98;;
70800;SDS011;59616;52.170;5.386;2023-04-24T10:47:58;4.85;;;1.08;;
70800;SDS011;59616;52.170;5.386;2023-04-24T10:53:15;3.20;;;0.75;;
70800;SDS011;59616;52.170;5.386;2023-04-24T10:58:10;4.40;;;0.90;;
70800;SDS011;59616;52.170;5.386;2023-04-24T11:00:39;2.38;;;0.80;;
70800;SDS011;59616;52.170;5.386;2023-04-24T11:03:12;2.25;;;0.75;;
70800;SDS011;59616;52.170;5.386;2023-04-24T11:05:51;4.85;;;0.98;;
70800;SDS011;59616;52.170;5.386;2023-04-24T11:08:22;6.75;;;0.95;;
70800;SDS011;59616;52.170;5.386;2023-04-24T11:11:04;7.82;;;1.40;;
70800;SDS011;59616;52.170;5.386;2023-04-24T11:16:36;7.60;;;1.10;;
70800;SDS011;59616;52.170;5.386;2023-04-24T11:19:06;6.32;;;1.50;;
70800;SDS011;59616;52.170;5.386;2023-04-24T11:26:54;6.00;;;1.25;;
70800;SDS011;59616;52.170;5.386;2023-04-24T11:29:23;7.28;;;1.33;;
70800;SDS011;59616;52.170;5.386;2023-04-24T11:31:51;8.60;;;1.30;;
70800;SDS011;59616;52.170;5.386;2023-04-24T11:34:18;3.33;;;1.13;;
70800;SDS011;59616;52.170;5.386;2023-04-24T11:36:45;4.63;;;0.80;;
70800;SDS011;59616;52.170;5.386;2023-04-24T11:39:14;3.35;;;0.75;;
70800;SDS011;59616;52.170;5.386;2023-04-24T11:41:41;6.60;;;1.30;;
70800;SDS011;59616;52.170;5.386;2023-04-24T11:44:09;2.63;;;0.80;;
70800;SDS011;59616;52.170;5.386;2023-04-24T11:46:37;2.60;;;1.02;;
70800;SDS011;59616;52.170;5.386;2023-04-24T11:49:06;3.67;;;0.82;;
70800;SDS011;59616;52.170;5.386;2023-04-24T11:51:34;2.05;;;0.50;;
70800;SDS011;59616;52.170;5.386;2023-04-24T11:54:18;4.55;;;0.80;;
70800;SDS011;59616;52.170;5.386;2023-04-24T11:56:46;2.42;;;0.60;;
70800;SDS011;59616;52.170;5.386;2023-04-24T11:59:14;4.30;;;0.93;;
70800;SDS011;59616;52.170;5.386;2023-04-24T12:01:44;1.95;;;0.52;;
70800;SDS011;59616;52.170;5.386;2023-04-24T12:04:12;2.00;;;0.50;;
70800;SDS011;59616;52.170;5.386;2023-04-24T12:06:39;3.08;;;0.70;;
70800;SDS011;59616;52.170;5.386;2023-04-24T12:09:08;2.95;;;0.60;;
70800;SDS011;59616;52.170;5.386;2023-04-24T12:11:52;1.48;;;0.40;;
70800;SDS011;59616;52.170;5.386;2023-04-24T12:14:20;3.95;;;0.90;;
70800;SDS011;59616;52.170;5.386;2023-04-24T12:16:47;5.82;;;0.90;;
70800;SDS011;59616;52.170;5.386;2023-04-24T12:19:21;3.80;;;0.80;;
70800;SDS011;59616;52.170;5.386;2023-04-24T12:22:02;3.70;;;0.88;;
70800;SDS011;59616;52.170;5.386;2023-04-24T12:24:30;6.15;;;0.80;;
70800;SDS011;59616;52.170;5.386;2023-04-24T12:26:57;7.25;;;1.08;;
70800;SDS011;59616;52.170;5.386;2023-04-24T12:29:25;3.15;;;0.75;;
70800;SDS011;59616;52.170;5.386;2023-04-24T12:31:52;7.85;;;0.98;;
70800;SDS011;59616;52.170;5.386;2023-04-24T12:34:20;4.57;;;0.90;;
70800;SDS011;59616;52.170;5.386;2023-04-24T12:36:48;4.60;;;1.10;;
70800;SDS011;59616;52.170;5.386;2023-04-24T12:39:15;8.27;;;1.10;;
70800;SDS011;59616;52.170;5.386;2023-04-24T12:41:56;6.45;;;1.20;;
70800;SDS011;59616;52.170;5.386;2023-04-24T12:44:31;9.10;;;1.38;;
70800;SDS011;59616;52.170;5.386;2023-04-24T12:46:59;7.82;;;1.05;;
70800;SDS011;59616;52.170;5.386;2023-04-24T12:49:26;4.80;;;1.10;;
70800;SDS011;59616;52.170;5.386;2023-04-24T12:51:54;4.68;;;1.17;;
70800;SDS011;59616;52.170;5.386;2023-04-24T12:54:21;5.35;;;1.20;;
70800;SDS011;59616;52.170;5.386;2023-04-24T12:56:48;5.35;;;1.10;;
70800;SDS011;59616;52.170;5.386;2023-04-24T12:59:16;7.78;;;1.52;;
70800;SDS011;59616;52.170;5.386;2023-04-24T13:01:43;8.95;;;1.50;;
70800;SDS011;59616;52.170;5.386;2023-04-24T13:04:10;7.68;;;1.55;;
70800;SDS011;59616;52.170;5.386;2023-04-24T13:06:38;7.75;;;1.35;;
70800;SDS011;59616;52.170;5.386;2023-04-24T13:09:05;6.95;;;1.52;;
70800;SDS011;59616;52.170;5.386;2023-04-24T13:11:32;7.80;;;1.35;;
70800;SDS011;59616;52.170;5.386;2023-04-24T13:13:59;10.60;;;1.73;;
70800;SDS011;59616;52.170;5.386;2023-04-24T13:16:26;11.15;;;1.60;;
70800;SDS011;59616;52.170;5.386;2023-04-24T13:18:54;13.77;;;1.92;;
70800;SDS011;59616;52.170;5.386;2023-04-24T13:21:21;7.85;;;1.77;;
70800;SDS011;59616;52.170;5.386;2023-04-24T13:23:48;11.15;;;1.67;;
70800;SDS011;59616;52.170;5.386;2023-04-24T13:26:15;8.63;;;1.45;;
70800;SDS011;59616;52.170;5.386;2023-04-24T13:28:43;9.48;;;1.98;;
70800;SDS011;59616;52.170;5.386;2023-04-24T13:31:10;7.30;;;2.05;;
70800;SDS011;59616;52.170;5.386;2023-04-24T13:33:37;10.23;;;1.85;;
70800;SDS011;59616;52.170;5.386;2023-04-24T13:36:04;9.98;;;2.10;;
70800;SDS011;59616;52.170;5.386;2023-04-24T13:38:32;10.52;;;1.83;;
70800;SDS011;59616;52.170;5.386;2023-04-24T13:40:59;8.98;;;1.90;;
70800;SDS011;59616;52.170;5.386;2023-04-24T13:43:26;10.52;;;1.80;;
70800;SDS011;59616;52.170;5.386;2023-04-24T13:45:53;9.35;;;1.75;;
70800;SDS011;59616;52.170;5.386;2023-04-24T13:48:21;10.35;;;2.20;;
70800;SDS011;59616;52.170;5.386;2023-04-24T13:50:48;8.52;;;1.77;;
70800;SDS011;59616;52.170;5.386;2023-04-24T13:53:15;11.63;;;1.88;;
70800;SDS011;59616;52.170;5.386;2023-04-24T13:55:43;9.10;;;1.92;;
70800;SDS011;59616;52.170;5.386;2023-04-24T13:58:10;9.38;;;2.42;;
70800;SDS011;59616;52.170;5.386;2023-04-24T14:00:37;9.13;;;1.83;;
70800;SDS011;59616;52.170;5.386;2023-04-24T14:03:04;9.73;;;2.03;;
70800;SDS011;59616;52.170;5.386;2023-04-24T14:05:32;9.10;;;1.80;;
70800;SDS011;59616;52.170;5.386;2023-04-24T14:07:59;9.40;;;2.40;;
70800;SDS011;59616;52.170;5.386;2023-04-24T14:10:26;9.15;;;1.92;;
70800;SDS011;59616;52.170;5.386;2023-04-24T14:12:54;11.80;;;2.00;;
70800;SDS011;59616;52.170;5.386;2023-04-24T14:15:21;8.88;;;1.77;;
70800;SDS011;59616;52.170;5.386;2023-04-24T14:17:48;10.93;;;1.80;;
70800;SDS011;59616;52.170;5.386;2023-04-24T14:20:16;7.88;;;1.75;;
70800;SDS011;59616;52.170;5.386;2023-04-24T14:22:43;10.00;;;1.98;;
70800;SDS011;59616;52.170;5.386;2023-04-24T14:25:11;8.43;;;2.38;;
70800;SDS011;59616;52.170;5.386;2023-04-24T14:27:38;9.82;;;2.08;;
70800;SDS011;59616;52.170;5.386;2023-04-24T14:30:06;9.63;;;2.08;;
70800;SDS011;59616;52.170;5.386;2023-04-24T14:32:34;11.80;;;2.28;;
70800;SDS011;59616;52.170;5.386;2023-04-24T14:35:02;10.15;;;2.33;;
70800;SDS011;59616;52.170;5.386;2023-04-24T14:37:29;13.00;;;2.08;;
70800;SDS011;59616;52.170;5.386;2023-04-24T14:39:57;10.18;;;2.13;;
70800;SDS011;59616;52.170;5.386;2023-04-24T14:42:44;10.05;;;2.10;;
70800;SDS011;59616;52.170;5.386;2023-04-24T14:45:11;8.82;;;2.20;;
70800;SDS011;59616;52.170;5.386;2023-04-24T14:47:39;12.73;;;2.72;;
70800;SDS011;59616;52.170;5.386;2023-04-24T14:50:06;8.50;;;2.30;;
70800;SDS011;59616;52.170;5.386;2023-04-24T14:52:34;9.52;;;2.05;;
70800;SDS011;59616;52.170;5.386;2023-04-24T14:55:02;12.65;;;2.50;;
70800;SDS011;59616;52.170;5.386;2023-04-24T14:57:29;9.25;;;2.20;;
70800;SDS011;59616;52.170;5.386;2023-04-24T14:59:56;12.25;;;2.60;;
70800;SDS011;59616;52.170;5.386;2023-04-24T15:02:24;15.63;;;2.85;;
70800;SDS011;59616;52.170;5.386;2023-04-24T15:04:51;10.70;;;2.55;;
70800;SDS011;59616;52.170;5.386;2023-04-24T15:07:19;12.07;;;2.15;;
70800;SDS011;59616;52.170;5.386;2023-04-24T15:09:46;11.63;;;2.55;;